Time;durP1;ratioP1;P1;durP2;ratioP2;P2;SDS_P1;SDS_P2;PMS_P1;PMS_P2;Temp;Humidity;BMP_temperature;BMP_pressure;BME280_temperature;BME280_humidity;BME280_pressure;Samples;Min_cycle;Max_cycle;Signal;HPM_P1;HPM_P2
2022/02/10 00:21:59;;;;;;;10.40;5.40;;;;;;;10.01;46.66;98154.66;5051001;28;20949;-69
2022/02/10 00:35:09;;;;;;;7.60;4.53;;;;;;;10.02;46.46;98141.44;5039223;28;20427;-68
2022/02/10 00:37:44;;;;;;;6.90;4.93;;;;;;;9.96;46.90;98150.63;5027698;28;20428;-68
2022/02/10 00:40:12;;;;;;;7.80;4.50;;;;;;;9.95;46.39;98148.13;5036790;28;20435;-69
2022/02/10 00:42:38;;;;;;;5.90;4.20;;;;;;;9.85;46.33;98148.06;5033063;28;20424;-68
2022/02/10 00:45:04;;;;;;;7.23;4.90;;;;;;;9.72;47.46;98144.75;5051004;28;20780;-69
2022/02/10 00:47:36;;;;;;;9.30;4.40;;;;;;;9.60;47.49;98136.94;5050953;28;20188;-69
2022/02/10 00:50:04;;;;;;;11.80;5.40;;;;;;;9.68;47.68;98137.19;5033119;28;20455;-69
2022/02/10 00:52:29;;;;;;;11.00;4.80;;;;;;;9.76;47.20;98133.94;5051027;28;20441;-69
2022/02/10 00:54:55;;;;;;;7.77;4.80;;;;;;;9.72;47.20;98136.91;5055039;28;20430;-69
2022/02/10 00:57:22;;;;;;;8.77;5.17;;;;;;;9.77;47.25;98132.97;5055180;28;20644;-69
2022/02/10 01:13:45;;;;;;;7.73;4.90;;;;;;;9.68;47.51;98126.72;4934701;29;20875;-69
2022/02/10 01:24:36;;;;;;;8.27;4.53;;;;;;;9.80;46.58;98116.19;4934955;29;20461;-69
2022/02/10 01:29:47;;;;;;;6.70;4.10;;;;;;;9.69;47.09;98111.81;4934789;29;20429;-68
2022/02/10 01:32:14;;;;;;;8.37;4.00;;;;;;;9.70;46.96;98116.09;4934295;29;20857;-69
2022/02/10 01:34:49;;;;;;;15.80;5.10;;;;;;;9.68;47.05;98111.00;4934383;29;20953;-68
2022/02/10 01:37:18;;;;;;;14.93;4.47;;;;;;;9.68;46.38;98121.47;4934928;29;20435;-68
2022/02/10 01:39:49;;;;;;;6.60;4.30;;;;;;;9.64;46.43;98120.06;4934220;29;20438;-68
2022/02/10 01:43:10;;;;;;;8.70;4.37;;;;;;;9.60;46.79;98112.56;4934249;29;20430;-68
2022/02/10 02:04:21;;;;;;;6.63;3.83;;;;;;;9.48;47.02;98090.81;5046393;28;20805;-68
2022/02/10 02:06:48;;;;;;;11.33;4.00;;;;;;;9.47;47.04;98081.31;5047906;28;20574;-69
2022/02/10 02:09:15;;;;;;;6.83;4.00;;;;;;;9.46;47.46;98084.88;5053576;28;20422;-68
2022/02/10 02:11:46;;;;;;;9.03;4.60;;;;;;;9.46;47.01;98085.72;5059045;28;20465;-69
2022/02/10 02:14:17;;;;;;;7.00;3.90;;;;;;;9.46;46.92;98079.66;5043316;28;21038;-69
2022/02/10 02:16:51;;;;;;;6.27;3.93;;;;;;;9.43;47.21;98074.69;5050717;28;20428;-69
2022/02/10 02:19:16;;;;;;;6.03;4.10;;;;;;;9.43;46.46;98064.22;5053299;28;20494;-70
2022/02/10 02:21:43;;;;;;;5.30;3.47;;;;;;;9.44;47.11;98058.03;5049845;28;20450;-69
2022/02/10 02:24:13;;;;;;;5.97;3.50;;;;;;;9.43;46.79;98057.19;5044492;28;20207;-68
2022/02/10 02:26:39;;;;;;;9.67;4.40;;;;;;;9.45;46.86;98051.84;5036499;28;20490;-69
2022/02/10 02:29:07;;;;;;;6.10;4.17;;;;;;;9.43;47.12;98053.75;5049356;28;20426;-69
2022/02/10 02:31:40;;;;;;;7.43;3.77;;;;;;;9.42;46.62;98052.09;5042106;28;20463;-68
2022/02/10 02:34:46;;;;;;;8.40;4.07;;;;;;;9.41;46.71;98039.97;5045287;28;20985;-69
2022/02/10 03:06:50;;;;;;;4.97;3.57;;;;;;;9.18;46.62;98026.94;5046441;28;20436;-67
2022/02/10 03:09:23;;;;;;;4.90;3.47;;;;;;;9.22;46.42;98025.72;5052659;28;20443;-68
2022/02/10 03:11:48;;;;;;;7.43;3.33;;;;;;;9.15;46.31;98024.59;5052350;28;20550;-70
2022/02/10 03:14:18;;;;;;;5.17;3.30;;;;;;;9.10;46.86;98026.72;5052089;28;20452;-70
2022/02/10 04:00:48;;;;;;;4.50;2.73;;;;;;;8.97;45.75;98017.25;5037835;28;20443;-69
2022/02/10 04:16:16;;;;;;;5.23;2.60;;;;;;;9.32;45.79;98033.69;5051471;28;20424;-68
2022/02/10 04:21:43;;;;;;;9.33;3.23;;;;;;;9.44;45.45;98034.47;5027263;28;20482;-69
2022/02/10 04:26:53;;;;;;;5.53;2.83;;;;;;;9.62;44.71;98030.34;5050120;28;20428;-69
2022/02/10 05:16:41;;;;;;;3.90;2.60;;;;;;;9.81;44.37;98000.03;5036739;28;20425;-69
2022/02/10 05:37:30;;;;;;;5.10;3.30;;;;;;;9.58;44.52;97989.66;5008421;28;20494;-69
2022/02/10 05:39:58;;;;;;;4.63;3.37;;;;;;;9.65;44.27;97996.06;5045896;28;20429;-69
2022/02/10 05:43:23;;;;;;;4.17;3.20;;;;;;;9.57;44.36;98003.75;5048331;28;20419;-68
2022/02/10 05:45:24;;;;;;;5.47;3.83;;;;;;;9.60;44.48;97994.78;5045345;28;20996;-68
2022/02/10 06:01:42;;;;;;;8.57;3.90;;;;;;;9.59;44.49;97988.72;5050538;28;20450;-68
2022/02/10 06:38:18;;;;;;;4.30;3.37;;;;;;;9.56;45.25;97996.00;5044725;28;20465;-68
2022/02/10 06:58:03;;;;;;;7.00;4.33;;;;;;;8.89;47.01;98012.63;5040430;28;20328;-70
2022/02/10 07:03:31;;;;;;;7.23;4.43;;;;;;;8.91;48.08;98008.09;4944073;28;20591;-69
2022/02/10 07:06:12;;;;;;;4.53;3.80;;;;;;;8.91;47.40;98009.91;5050738;28;20433;-69
2022/02/10 07:49:41;;;;;;;9.67;4.70;;;;;;;10.14;47.24;97974.56;5052594;28;20574;-70
2022/02/10 07:57:52;;;;;;;6.63;4.17;;;;;;;10.39;46.51;97975.97;5028868;28;20422;-69
2022/02/10 08:04:28;;;;;;;8.47;4.20;;;;;;;10.42;46.21;97982.72;5026418;28;20487;-69
2022/02/10 08:26:02;;;;;;;7.73;4.03;;;;;;;10.51;46.08;97974.06;5052737;28;20494;-69
2022/02/10 08:58:28;;;;;;;5.90;3.90;;;;;;;16.10;35.68;97995.38;5051005;28;20429;-70
2022/02/10 09:59:22;;;;;;;6.10;3.87;;;;;;;19.10;30.55;98001.69;5038787;28;20783;-71
2022/02/10 10:02:13;;;;;;;10.07;3.40;;;;;;;19.72;30.30;98007.41;5044068;28;20432;-71
2022/02/10 10:05:07;;;;;;;8.00;3.37;;;;;;;19.46;30.07;98008.00;5035003;28;20859;-71
2022/02/10 10:13:31;;;;;;;9.10;4.03;;;;;;;18.86;31.01;98008.97;5044049;28;20456;-71
2022/02/10 10:24:24;;;;;;;7.33;4.00;;;;;;;20.31;29.76;98020.56;4973410;28;20209;-71
2022/02/10 10:48:04;;;;;;;4.50;3.73;;;;;;;21.57;27.56;98000.72;4972180;28;20433;-71
2022/02/10 10:51:53;;;;;;;4.83;3.80;;;;;;;20.46;29.28;98007.13;4971910;28;20920;-71
2022/02/10 10:54:30;;;;;;;12.27;4.67;;;;;;;20.01;29.45;97994.97;5052728;28;20473;-71
2022/02/10 10:56:59;;;;;;;7.97;4.43;;;;;;;19.82;30.20;97998.25;5044467;28;20433;-71
2022/02/10 11:36:46;;;;;;;5.00;3.90;;;;;;;20.93;29.01;97962.88;4979118;28;20202;-71
2022/02/10 11:42:28;;;;;;;8.23;4.07;;;;;;;20.96;29.48;97970.47;4984540;28;20504;-71
2022/02/10 14:10:28;;;;;;;8.17;5.80;;;;;;;15.96;39.95;97985.47;5053771;28;20422;-71
2022/02/10 14:13:02;;;;;;;12.23;6.30;;;;;;;15.94;39.87;97976.88;5052823;28;20470;-71
2022/02/10 14:18:11;;;;;;;10.60;6.50;;;;;;;15.51;41.50;97983.16;5053356;28;20472;-71
2022/02/10 14:23:18;;;;;;;12.43;6.53;;;;;;;15.43;42.08;97995.53;5051558;28;20441;-71
2022/02/10 14:28:11;;;;;;;12.67;6.10;;;;;;;15.31;42.12;97992.38;5053166;28;20429;-71
2022/02/10 14:30:38;;;;;;;11.00;6.37;;;;;;;15.22;42.34;97993.38;5045047;28;20949;-71
2022/02/10 14:33:04;;;;;;;11.50;6.47;;;;;;;15.25;42.47;97993.06;5044921;28;20730;-71
2022/02/10 14:35:37;;;;;;;9.20;6.27;;;;;;;15.17;42.93;98002.59;5053133;28;20420;-71
2022/02/10 15:55:34;;;;;;;11.10;4.97;;;;;;;14.09;42.22;98000.50;5028912;28;20615;-71
2022/02/10 16:16:54;;;;;;;7.47;4.93;;;;;;;13.70;41.22;97998.25;5051174;28;20844;-70
2022/02/10 16:19:20;;;;;;;6.37;4.07;;;;;;;13.77;nan;98004.53;5051255;28;20430;-70
2022/02/10 16:21:58;;;;;;;6.70;3.87;;;;;;;13.77;41.31;98010.66;5051171;28;20518;-70
2022/02/10 16:24:30;;;;;;;11.80;4.43;;;;;;;13.84;41.11;98005.59;5050704;28;20233;-70
2022/02/10 16:27:00;;;;;;;5.53;4.07;;;;;;;13.65;41.79;98003.97;5051156;28;21025;-70
2022/02/10 16:29:28;;;;;;;6.13;4.00;;;;;;;13.73;41.81;98013.75;5051136;28;20432;-70
2022/02/10 16:31:54;;;;;;;8.70;4.47;;;;;;;13.59;41.67;98008.03;5042525;28;21021;-70
2022/02/10 16:34:20;;;;;;;8.80;3.90;;;;;;;13.59;41.83;98012.47;5050868;28;20441;-70
2022/02/10 16:36:46;;;;;;;4.10;3.70;;;;;;;13.40;41.47;98014.28;5050742;28;20194;-70
2022/02/10 16:39:16;;;;;;;4.47;4.07;;;;;;;13.37;41.03;98009.28;5051146;28;20933;-70
2022/02/10 16:41:46;;;;;;;6.77;4.03;;;;;;;13.37;40.99;98007.47;5051020;28;20437;-70
2022/02/10 16:44:11;;;;;;;5.10;3.67;;;;;;;13.38;40.40;98000.41;5050755;28;20849;-71
2022/02/10 16:46:37;;;;;;;5.80;4.00;;;;;;;13.37;40.88;97993.50;5050688;28;20421;-71
2022/02/10 16:49:03;;;;;;;5.60;3.77;;;;;;;13.41;40.78;97983.50;5050975;28;20426;-70
2022/02/10 16:51:30;;;;;;;5.10;3.50;;;;;;;13.45;40.59;97983.06;5051729;28;20195;-70
2022/02/10 16:54:08;;;;;;;4.67;3.57;;;;;;;13.40;39.92;97985.31;5050486;28;20460;-70
2022/02/10 16:56:44;;;;;;;4.47;3.33;;;;;;;13.38;39.77;97989.88;5050986;28;20444;-71
2022/02/10 16:59:26;;;;;;;5.87;3.30;;;;;;;13.30;40.25;97977.47;5043713;28;20426;-71
2022/02/10 17:20:43;;;;;;;7.80;3.70;;;;;;;13.01;40.93;97993.47;5045105;28;20426;-71
2022/02/10 17:26:20;;;;;;;6.47;3.53;;;;;;;13.06;40.61;98001.72;5042440;28;20429;-71
2022/02/10 17:28:46;;;;;;;8.03;3.47;;;;;;;13.11;40.86;98009.19;5050448;28;20458;-70
2022/02/10 17:36:32;;;;;;;6.93;3.77;;;;;;;13.03;40.54;98016.03;5048509;28;20454;-72
2022/02/10 17:42:01;;;;;;;6.63;4.23;;;;;;;13.04;40.79;98017.69;5055398;28;20421;-71
2022/02/10 17:52:25;;;;;;;10.30;4.03;;;;;;;12.96;40.83;98014.97;5034744;28;20524;-71
2022/02/10 17:54:50;;;;;;;8.17;3.83;;;;;;;13.01;40.96;98017.97;5038729;28;20930;-72
2022/02/10 17:57:16;;;;;;;10.53;5.03;;;;;;;12.99;41.24;98009.38;5045423;28;20183;-72
2022/02/10 17:59:42;;;;;;;12.60;5.80;;;;;;;12.83;41.49;98017.13;5047293;28;20190;-72
2022/02/10 18:02:08;;;;;;;8.17;4.73;;;;;;;12.92;41.29;98012.78;5049164;28;20820;-72
2022/02/10 18:04:34;;;;;;;7.90;4.27;;;;;;;12.96;41.25;98014.97;5031608;28;20216;-71
2022/02/10 18:06:59;;;;;;;4.90;3.87;;;;;;;12.89;41.50;98014.72;5047844;28;20633;-70
2022/02/10 18:14:59;;;;;;;7.33;4.00;;;;;;;12.80;41.85;97999.81;5047710;28;20522;-68
2022/02/10 18:17:29;;;;;;;7.83;4.57;;;;;;;12.69;42.42;97995.59;5058220;28;20459;-71
2022/02/10 18:20:00;;;;;;;6.57;4.33;;;;;;;12.80;42.19;97996.38;5058537;28;20501;-71
2022/02/10 18:30:02;;;;;;;5.40;3.60;;;;;;;12.78;42.57;97995.69;5042899;28;20239;-71
2022/02/10 19:01:44;;;;;;;5.80;3.70;;;;;;;12.84;42.55;97989.84;5055040;28;20437;-70
2022/02/10 19:08:05;;;;;;;7.63;3.97;;;;;;;12.78;42.91;97996.53;5052561;28;20497;-69
2022/02/10 19:10:31;;;;;;;4.20;3.80;;;;;;;12.67;43.45;97981.75;5054670;28;20433;-69
2022/02/10 19:12:58;;;;;;;7.30;3.60;;;;;;;12.47;43.52;97993.34;5056266;28;20459;-70
2022/02/10 19:15:32;;;;;;;8.90;4.00;;;;;;;12.34;44.00;97998.91;5055638;28;20236;-70
2022/02/10 19:17:58;;;;;;;6.30;4.00;;;;;;;12.41;43.94;97992.13;5038992;28;20419;-72
2022/02/10 19:20:26;;;;;;;6.27;3.90;;;;;;;12.34;43.90;97989.25;5055467;28;20436;-69
2022/02/10 19:22:51;;;;;;;6.17;4.40;;;;;;;12.42;44.03;97997.22;5054061;28;20632;-69
2022/02/10 19:25:17;;;;;;;6.97;4.70;;;;;;;12.47;43.72;98002.06;5048101;28;20414;-71
2022/02/10 19:27:45;;;;;;;6.20;4.00;;;;;;;12.52;43.92;97989.31;5045615;28;21284;-69
2022/02/10 19:30:13;;;;;;;5.43;4.30;;;;;;;12.48;44.17;97987.09;5048877;28;20252;-69
2022/02/10 19:32:42;;;;;;;5.23;3.90;;;;;;;12.52;43.99;97985.84;5048646;28;20913;-69
2022/02/10 19:35:09;;;;;;;5.93;4.10;;;;;;;12.47;43.92;97993.34;5052227;28;20421;-70
2022/02/10 19:37:34;;;;;;;8.53;3.70;;;;;;;12.46;44.18;97986.44;5053180;28;20435;-70
2022/02/10 19:40:03;;;;;;;6.20;3.87;;;;;;;12.45;44.55;97988.22;5044517;28;20414;-70
2022/02/10 19:42:32;;;;;;;5.70;3.67;;;;;;;12.41;44.21;97981.63;5044922;28;20454;-70
2022/02/10 19:45:02;;;;;;;5.40;4.23;;;;;;;12.40;44.61;97978.16;5051105;28;20477;-69
2022/02/10 19:47:29;;;;;;;5.90;4.30;;;;;;;12.49;44.51;97973.81;5051992;28;20947;-70
2022/02/10 19:49:56;;;;;;;7.27;4.60;;;;;;;12.56;44.65;97974.88;5049475;28;20540;-69
2022/02/10 19:52:21;;;;;;;7.70;4.60;;;;;;;12.63;44.19;97969.88;5046269;28;20452;-70
2022/02/10 19:54:51;;;;;;;5.33;3.97;;;;;;;12.64;44.17;97971.53;5051713;28;20430;-68
2022/02/10 19:57:18;;;;;;;4.43;3.67;;;;;;;12.62;43.98;97973.47;5052221;28;20245;-70
2022/02/10 19:59:43;;;;;;;4.53;4.10;;;;;;;12.59;44.32;97971.97;5050411;28;20452;-69
2022/02/10 20:02:09;;;;;;;6.63;4.20;;;;;;;12.46;44.46;97962.78;5044542;28;20850;-70
2022/02/10 20:04:35;;;;;;;4.73;4.20;;;;;;;12.49;44.57;97957.19;5034235;28;20201;-69
2022/02/10 20:07:00;;;;;;;9.90;4.40;;;;;;;12.49;44.32;97951.94;5032639;28;20183;-70
2022/02/10 20:09:25;;;;;;;6.87;4.67;;;;;;;12.48;44.47;97959.03;5034280;28;20191;-69
2022/02/10 20:11:51;;;;;;;5.13;4.27;;;;;;;12.44;44.48;97960.28;5040853;28;20212;-69
2022/02/10 20:14:23;;;;;;;6.87;4.57;;;;;;;12.40;44.47;97959.75;5045693;28;20207;-70
2022/02/10 20:16:50;;;;;;;6.07;4.63;;;;;;;12.45;44.73;97951.41;5042049;28;20180;-70
2022/02/10 20:19:15;;;;;;;9.03;4.77;;;;;;;12.39;44.98;97957.28;5049041;28;20459;-71
2022/02/10 20:21:41;;;;;;;7.13;4.47;;;;;;;12.35;44.98;97951.44;5048747;28;20422;-69
2022/02/10 20:24:06;;;;;;;9.40;5.23;;;;;;;12.40;44.74;97949.22;5057478;28;20209;-69
2022/02/10 20:26:32;;;;;;;8.13;4.90;;;;;;;12.42;44.61;97955.16;5056307;28;20183;-70
2022/02/10 20:28:58;;;;;;;6.70;4.60;;;;;;;12.43;44.98;97948.09;5055434;28;20675;-70
2022/02/10 20:31:24;;;;;;;9.97;5.13;;;;;;;12.46;44.74;97950.44;5049094;28;20622;-70
2022/02/10 20:33:50;;;;;;;6.67;5.37;;;;;;;12.42;44.54;97946.44;5055800;28;20222;-70
2022/02/10 20:36:15;;;;;;;6.20;5.30;;;;;;;12.47;44.99;97946.84;5030173;28;20418;-71
2022/02/10 20:38:45;;;;;;;9.83;4.30;;;;;;;12.51;44.80;97942.97;5050608;28;20183;-69
2022/02/10 20:41:16;;;;;;;4.87;3.83;;;;;;;12.49;45.02;97936.16;5044839;28;20175;-68
2022/02/10 20:43:44;;;;;;;4.77;3.90;;;;;;;12.53;45.01;97940.16;5051096;28;20434;-71
2022/02/10 20:46:13;;;;;;;8.10;5.20;;;;;;;12.51;44.86;97928.97;5051653;28;20521;-70
2022/02/10 20:48:40;;;;;;;6.70;5.20;;;;;;;12.49;45.04;97930.91;5051359;28;20450;-69
2022/02/10 20:51:08;;;;;;;6.73;4.63;;;;;;;12.52;45.14;97922.75;5043387;28;21022;-70
2022/02/10 20:53:37;;;;;;;8.83;6.87;;;;;;;12.48;44.77;97919.59;5033066;28;20808;-70
2022/02/10 20:56:05;;;;;;;8.93;6.40;;;;;;;12.47;44.76;97917.13;5033676;28;20414;-70
2022/02/10 20:58:31;;;;;;;12.60;6.30;;;;;;;12.49;45.37;97915.97;5038784;28;20410;-70
2022/02/10 21:01:00;;;;;;;8.27;5.07;;;;;;;12.50;45.12;97915.00;5042910;28;21867;-70
2022/02/10 21:03:28;;;;;;;16.53;6.13;;;;;;;12.51;45.15;97907.94;5050730;28;20849;-68
2022/02/10 21:06:05;;;;;;;8.80;6.37;;;;;;;12.40;45.50;97901.91;5051140;28;20428;-69
2022/02/10 21:11:16;;;;;;;7.20;5.00;;;;;;;12.38;45.87;97908.28;5048077;28;20885;-71
2022/02/10 21:13:41;;;;;;;9.83;5.70;;;;;;;12.40;46.01;97909.78;5041092;28;20475;-69
2022/02/10 21:16:06;;;;;;;15.60;5.73;;;;;;;12.37;46.20;97907.44;5035259;28;20426;-69
2022/02/10 21:18:33;;;;;;;8.60;4.83;;;;;;;12.35;46.62;97911.22;5051193;28;20180;-69
2022/02/10 21:21:03;;;;;;;8.60;5.20;;;;;;;12.37;46.48;97920.59;5055308;28;20213;-70
2022/02/10 21:23:37;;;;;;;13.63;5.33;;;;;;;12.34;46.58;97918.28;5054762;28;20444;-71
2022/02/10 21:26:03;;;;;;;6.87;5.20;;;;;;;12.33;46.60;97911.38;5021063;28;20434;-70
2022/02/10 21:28:35;;;;;;;9.23;5.10;;;;;;;12.30;46.60;97916.91;5051253;28;20469;-71
2022/02/10 21:31:04;;;;;;;8.13;4.97;;;;;;;12.12;47.02;97904.53;5043353;28;20180;-69
2022/02/10 21:34:22;;;;;;;7.20;4.50;;;;;;;12.17;46.88;97908.53;5041847;28;20445;-70
2022/02/10 21:45:17;;;;;;;8.90;5.13;;;;;;;12.33;46.49;97900.84;5041271;28;20825;-69
2022/02/10 21:55:35;;;;;;;8.67;5.67;;;;;;;12.22;46.04;97887.91;5030892;28;20460;-72
2022/02/10 21:58:48;;;;;;;9.70;5.20;;;;;;;12.20;46.22;97881.97;5029628;28;20790;-69
2022/02/10 22:04:26;;;;;;;10.27;5.50;;;;;;;12.23;46.20;97885.13;5047433;28;20943;-71
2022/02/10 22:06:32;;;;;;;11.70;5.40;;;;;;;12.30;46.39;97872.22;5028209;28;20483;-71
2022/02/10 22:17:35;;;;;;;8.13;5.17;;;;;;;12.25;46.96;97850.81;5039340;28;20414;-70
2022/02/10 22:20:00;;;;;;;9.20;5.10;;;;;;;12.19;46.62;97851.41;5053118;28;20445;-68
2022/02/10 22:22:35;;;;;;;7.57;5.17;;;;;;;12.29;46.28;97844.28;5051216;28;20459;-70
2022/02/10 22:25:04;;;;;;;8.27;5.27;;;;;;;12.32;46.41;97851.88;5052194;28;20411;-68
2022/02/10 22:27:33;;;;;;;10.30;5.30;;;;;;;12.35;46.55;97854.19;5052842;28;20910;-68
2022/02/10 22:30:05;;;;;;;6.67;5.40;;;;;;;12.37;46.66;97857.50;5037171;28;20429;-69
2022/02/10 22:32:58;;;;;;;8.27;5.77;;;;;;;12.39;46.01;97858.19;5041240;28;20453;-70
2022/02/10 22:35:25;;;;;;;8.20;5.00;;;;;;;12.37;45.97;97860.13;5053228;28;20929;-70
2022/02/10 22:37:53;;;;;;;7.07;5.20;;;;;;;12.42;46.02;97859.69;5050812;28;21348;-70
2022/02/10 22:43:10;;;;;;;7.27;5.10;;;;;;;12.38;46.22;97856.53;5003195;28;20442;-69
2022/02/10 22:45:35;;;;;;;6.03;5.00;;;;;;;12.44;46.35;97858.59;5025961;28;20430;-69
2022/02/10 22:48:01;;;;;;;7.70;4.80;;;;;;;12.40;46.13;97853.78;5052888;28;20175;-69
2022/02/10 22:50:26;;;;;;;9.83;5.13;;;;;;;12.42;46.71;97857.91;5052310;28;20175;-68
2022/02/10 22:52:54;;;;;;;10.97;5.20;;;;;;;12.26;47.21;97862.97;5051479;28;20222;-68
2022/02/10 22:55:20;;;;;;;7.07;4.53;;;;;;;12.09;47.59;97860.19;5052254;28;20267;-69
2022/02/10 22:57:47;;;;;;;7.10;4.53;;;;;;;11.97;47.66;97853.44;5050869;28;20428;-69
2022/02/10 23:00:26;;;;;;;6.47;4.27;;;;;;;11.98;47.58;97852.47;4988230;28;20427;-69
2022/02/10 23:02:51;;;;;;;4.77;3.87;;;;;;;12.06;47.46;97851.72;5050412;28;20413;-69
2022/02/10 23:05:17;;;;;;;7.53;4.80;;;;;;;12.03;47.37;97844.97;5034588;28;20430;-70
2022/02/10 23:07:42;;;;;;;7.00;5.00;;;;;;;12.02;47.12;97845.94;5051327;28;20262;-69
2022/02/10 23:12:43;;;;;;;9.50;4.90;;;;;;;12.13;47.25;97843.13;5049229;28;20260;-68
2022/02/10 23:15:08;;;;;;;7.00;4.90;;;;;;;12.18;47.54;97842.69;5051912;28;20886;-68
2022/02/10 23:17:36;;;;;;;7.00;4.60;;;;;;;12.22;47.45;97841.41;5051930;28;20179;-68
2022/02/10 23:20:02;;;;;;;7.33;4.70;;;;;;;12.24;47.51;97838.63;5051664;28;20303;-68
2022/02/10 23:22:28;;;;;;;6.00;4.70;;;;;;;12.28;47.54;97826.88;5050622;28;20406;-68
2022/02/10 23:24:53;;;;;;;7.83;5.10;;;;;;;12.27;47.56;97827.84;5051472;28;20445;-69
2022/02/10 23:27:19;;;;;;;7.70;4.57;;;;;;;12.28;47.39;97835.59;5051434;28;20187;-69
2022/02/10 23:29:44;;;;;;;7.00;5.13;;;;;;;12.22;47.43;97832.72;5050461;28;20191;-68
2022/02/10 23:32:12;;;;;;;8.80;4.83;;;;;;;12.22;47.61;97830.09;5044201;28;20218;-69
2022/02/10 23:34:38;;;;;;;7.73;4.43;;;;;;;12.22;47.45;97837.97;5033268;28;20294;-67
2022/02/10 23:37:03;;;;;;;10.33;5.00;;;;;;;12.19;47.40;97838.25;5051433;28;20460;-69
2022/02/10 23:39:33;;;;;;;6.40;4.90;;;;;;;12.17;48.10;97837.59;5051191;28;20183;-69
2022/02/10 23:44:34;;;;;;;6.13;4.57;;;;;;;12.19;48.21;97835.63;5050322;28;21097;-69
2022/02/10 23:47:02;;;;;;;7.97;5.20;;;;;;;12.12;48.40;97835.41;5051876;28;20433;-69
2022/02/10 23:49:30;;;;;;;6.90;5.17;;;;;;;12.12;48.33;97830.16;5051597;28;20547;-68
2022/02/10 23:51:59;;;;;;;8.47;5.30;;;;;;;12.10;48.49;97832.91;5037794;28;20833;-70
2022/02/10 23:54:27;;;;;;;8.70;4.77;;;;;;;12.02;48.57;97830.19;5050348;28;20452;-68
2022/02/10 23:56:59;;;;;;;11.43;5.17;;;;;;;12.05;48.80;97824.66;5046934;28;20439;-68
